sensor_id;sensor_type;location;lat;lon;timestamp;P1;durP1;ratioP1;P2;durP2;ratioP2
56997;SDS011;42890;44.244;22.530;2023-05-10T00:00:39;15.15;;;13.65;;
56997;SDS011;42890;44.244;22.530;2023-05-10T00:03:05;14.80;;;13.35;;
56997;SDS011;42890;44.244;22.530;2023-05-10T00:05:32;14.27;;;12.88;;
56997;SDS011;42890;44.244;22.530;2023-05-10T00:07:58;14.05;;;12.63;;
56997;SDS011;42890;44.244;22.530;2023-05-10T00:10:24;18.75;;;12.95;;
56997;SDS011;42890;44.244;22.530;2023-05-10T00:12:50;14.80;;;12.43;;
56997;SDS011;42890;44.244;22.530;2023-05-10T00:15:16;17.70;;;12.98;;
56997;SDS011;42890;44.244;22.530;2023-05-10T00:17:42;13.20;;;11.93;;
56997;SDS011;42890;44.244;22.530;2023-05-10T00:20:09;13.65;;;12.30;;
56997;SDS011;42890;44.244;22.530;2023-05-10T00:22:35;13.35;;;12.13;;
56997;SDS011;42890;44.244;22.530;2023-05-10T00:25:01;12.25;;;10.95;;
56997;SDS011;42890;44.244;22.530;2023-05-10T00:27:27;12.07;;;10.25;;
56997;SDS011;42890;44.244;22.530;2023-05-10T00:29:53;11.70;;;10.70;;
56997;SDS011;42890;44.244;22.530;2023-05-10T00:32:20;11.95;;;10.95;;
56997;SDS011;42890;44.244;22.530;2023-05-10T00:34:46;12.38;;;11.10;;
56997;SDS011;42890;44.244;22.530;2023-05-10T00:37:12;12.60;;;11.20;;
56997;SDS011;42890;44.244;22.530;2023-05-10T00:39:38;13.63;;;11.20;;
56997;SDS011;42890;44.244;22.530;2023-05-10T00:42:04;13.25;;;10.85;;
56997;SDS011;42890;44.244;22.530;2023-05-10T00:44:30;15.68;;;12.32;;
56997;SDS011;42890;44.244;22.530;2023-05-10T00:46:56;18.27;;;13.57;;
56997;SDS011;42890;44.244;22.530;2023-05-10T00:49:23;15.45;;;11.60;;
56997;SDS011;42890;44.244;22.530;2023-05-10T00:51:49;14.82;;;11.55;;
56997;SDS011;42890;44.244;22.530;2023-05-10T00:54:15;13.90;;;11.43;;
56997;SDS011;42890;44.244;22.530;2023-05-10T00:56:42;13.20;;;11.80;;
56997;SDS011;42890;44.244;22.530;2023-05-10T00:59:13;15.15;;;11.73;;
56997;SDS011;42890;44.244;22.530;2023-05-10T01:01:41;12.50;;;11.30;;
56997;SDS011;42890;44.244;22.530;2023-05-10T01:04:07;13.98;;;11.07;;
56997;SDS011;42890;44.244;22.530;2023-05-10T01:06:35;12.75;;;9.90;;
56997;SDS011;42890;44.244;22.530;2023-05-10T01:09:01;14.10;;;10.07;;
56997;SDS011;42890;44.244;22.530;2023-05-10T01:11:27;11.40;;;10.23;;
56997;SDS011;42890;44.244;22.530;2023-05-10T01:13:56;11.88;;;10.43;;
56997;SDS011;42890;44.244;22.530;2023-05-10T01:16:23;11.80;;;10.13;;
56997;SDS011;42890;44.244;22.530;2023-05-10T01:18:50;11.50;;;10.38;;
56997;SDS011;42890;44.244;22.530;2023-05-10T01:21:21;14.57;;;9.82;;
56997;SDS011;42890;44.244;22.530;2023-05-10T01:37:21;19.58;;;17.48;;
56997;SDS011;42890;44.244;22.530;2023-05-10T01:39:52;31.40;;;28.20;;
56997;SDS011;42890;44.244;22.530;2023-05-10T01:42:21;37.78;;;33.72;;
56997;SDS011;42890;44.244;22.530;2023-05-10T01:44:51;26.50;;;23.85;;
56997;SDS011;42890;44.244;22.530;2023-05-10T01:47:26;18.70;;;14.95;;
56997;SDS011;42890;44.244;22.530;2023-05-10T01:49:55;16.63;;;15.05;;
56997;SDS011;42890;44.244;22.530;2023-05-10T01:52:30;14.25;;;13.02;;
56997;SDS011;42890;44.244;22.530;2023-05-10T01:55:14;11.80;;;10.68;;
56997;SDS011;42890;44.244;22.530;2023-05-10T01:57:42;14.82;;;11.75;;
56997;SDS011;42890;44.244;22.530;2023-05-10T02:00:09;12.30;;;11.02;;
56997;SDS011;42890;44.244;22.530;2023-05-10T02:02:40;11.50;;;10.43;;
56997;SDS011;42890;44.244;22.530;2023-05-10T02:05:07;16.63;;;11.25;;
56997;SDS011;42890;44.244;22.530;2023-05-10T02:07:34;14.93;;;11.48;;
56997;SDS011;42890;44.244;22.530;2023-05-10T02:10:04;13.55;;;10.57;;
56997;SDS011;42890;44.244;22.530;2023-05-10T02:12:52;11.48;;;10.30;;
56997;SDS011;42890;44.244;22.530;2023-05-10T02:15:19;13.10;;;11.25;;
56997;SDS011;42890;44.244;22.530;2023-05-10T02:17:46;11.85;;;10.65;;
56997;SDS011;42890;44.244;22.530;2023-05-10T02:20:13;11.43;;;10.23;;
56997;SDS011;42890;44.244;22.530;2023-05-10T02:22:40;11.40;;;10.45;;
56997;SDS011;42890;44.244;22.530;2023-05-10T02:25:06;12.15;;;10.93;;
56997;SDS011;42890;44.244;22.530;2023-05-10T02:27:34;12.48;;;10.55;;
56997;SDS011;42890;44.244;22.530;2023-05-10T02:30:00;18.33;;;10.68;;
56997;SDS011;42890;44.244;22.530;2023-05-10T02:32:27;15.30;;;10.98;;
56997;SDS011;42890;44.244;22.530;2023-05-10T02:34:55;12.10;;;10.95;;
56997;SDS011;42890;44.244;22.530;2023-05-10T02:37:21;12.25;;;11.02;;
56997;SDS011;42890;44.244;22.530;2023-05-10T02:39:51;13.18;;;11.70;;
56997;SDS011;42890;44.244;22.530;2023-05-10T02:42:18;11.82;;;10.82;;
56997;SDS011;42890;44.244;22.530;2023-05-10T02:44:48;12.63;;;11.13;;
56997;SDS011;42890;44.244;22.530;2023-05-10T02:47:14;13.00;;;11.50;;
56997;SDS011;42890;44.244;22.530;2023-05-10T02:49:41;13.20;;;11.85;;
56997;SDS011;42890;44.244;22.530;2023-05-10T02:52:07;13.18;;;11.93;;
56997;SDS011;42890;44.244;22.530;2023-05-10T02:54:41;15.07;;;12.75;;
56997;SDS011;42890;44.244;22.530;2023-05-10T02:57:10;13.20;;;11.90;;
56997;SDS011;42890;44.244;22.530;2023-05-10T02:59:38;12.32;;;11.18;;
56997;SDS011;42890;44.244;22.530;2023-05-10T03:02:05;16.17;;;12.43;;
56997;SDS011;42890;44.244;22.530;2023-05-10T03:04:31;14.00;;;12.52;;
56997;SDS011;42890;44.244;22.530;2023-05-10T03:06:57;13.88;;;12.48;;
56997;SDS011;42890;44.244;22.530;2023-05-10T03:09:23;14.07;;;12.38;;
56997;SDS011;42890;44.244;22.530;2023-05-10T03:14:21;13.65;;;12.40;;
56997;SDS011;42890;44.244;22.530;2023-05-10T03:16:52;14.48;;;13.00;;
56997;SDS011;42890;44.244;22.530;2023-05-10T03:19:22;14.60;;;12.60;;
56997;SDS011;42890;44.244;22.530;2023-05-10T03:21:50;14.82;;;13.20;;
56997;SDS011;42890;44.244;22.530;2023-05-10T03:24:18;13.57;;;12.25;;
56997;SDS011;42890;44.244;22.530;2023-05-10T03:26:45;19.27;;;12.93;;
56997;SDS011;42890;44.244;22.530;2023-05-10T03:29:12;14.13;;;12.73;;
56997;SDS011;42890;44.244;22.530;2023-05-10T03:31:39;14.15;;;12.88;;
56997;SDS011;42890;44.244;22.530;2023-05-10T03:34:05;15.38;;;13.02;;
56997;SDS011;42890;44.244;22.530;2023-05-10T03:36:32;13.52;;;12.23;;
56997;SDS011;42890;44.244;22.530;2023-05-10T03:38:58;15.27;;;12.57;;
56997;SDS011;42890;44.244;22.530;2023-05-10T03:41:24;13.88;;;12.68;;
56997;SDS011;42890;44.244;22.530;2023-05-10T03:43:50;20.73;;;14.02;;
56997;SDS011;42890;44.244;22.530;2023-05-10T03:46:16;13.88;;;12.55;;
56997;SDS011;42890;44.244;22.530;2023-05-10T03:48:43;13.30;;;12.20;;
56997;SDS011;42890;44.244;22.530;2023-05-10T03:51:09;12.93;;;11.93;;
56997;SDS011;42890;44.244;22.530;2023-05-10T03:53:35;14.32;;;12.77;;
56997;SDS011;42890;44.244;22.530;2023-05-10T03:56:01;13.75;;;12.48;;
56997;SDS011;42890;44.244;22.530;2023-05-10T03:58:27;13.90;;;12.50;;
56997;SDS011;42890;44.244;22.530;2023-05-10T04:00:53;14.30;;;13.10;;
56997;SDS011;42890;44.244;22.530;2023-05-10T04:03:20;14.77;;;13.38;;
56997;SDS011;42890;44.244;22.530;2023-05-10T04:05:46;14.82;;;13.07;;
56997;SDS011;42890;44.244;22.530;2023-05-10T04:08:12;15.00;;;13.50;;
56997;SDS011;42890;44.244;22.530;2023-05-10T04:10:41;14.90;;;13.43;;
56997;SDS011;42890;44.244;22.530;2023-05-10T04:13:07;16.63;;;13.52;;
56997;SDS011;42890;44.244;22.530;2023-05-10T04:15:33;15.43;;;13.85;;
56997;SDS011;42890;44.244;22.530;2023-05-10T04:18:00;15.15;;;13.63;;
56997;SDS011;42890;44.244;22.530;2023-05-10T04:20:26;14.88;;;13.55;;
56997;SDS011;42890;44.244;22.530;2023-05-10T04:22:52;15.88;;;13.43;;
56997;SDS011;42890;44.244;22.530;2023-05-10T04:25:18;14.50;;;13.18;;
56997;SDS011;42890;44.244;22.530;2023-05-10T04:27:45;18.63;;;14.40;;
56997;SDS011;42890;44.244;22.530;2023-05-10T04:30:11;15.43;;;13.85;;
56997;SDS011;42890;44.244;22.530;2023-05-10T04:32:37;15.48;;;13.90;;
56997;SDS011;42890;44.244;22.530;2023-05-10T04:35:03;15.48;;;13.30;;
56997;SDS011;42890;44.244;22.530;2023-05-10T04:37:30;15.23;;;13.85;;
56997;SDS011;42890;44.244;22.530;2023-05-10T04:39:56;14.27;;;12.95;;
56997;SDS011;42890;44.244;22.530;2023-05-10T04:42:22;15.27;;;13.25;;
56997;SDS011;42890;44.244;22.530;2023-05-10T04:44:48;18.33;;;13.70;;
56997;SDS011;42890;44.244;22.530;2023-05-10T04:47:14;13.75;;;12.50;;
56997;SDS011;42890;44.244;22.530;2023-05-10T04:49:41;14.98;;;13.55;;
56997;SDS011;42890;44.244;22.530;2023-05-10T04:52:07;15.68;;;14.00;;
56997;SDS011;42890;44.244;22.530;2023-05-10T04:54:33;16.88;;;13.93;;
56997;SDS011;42890;44.244;22.530;2023-05-10T04:56:59;14.90;;;13.48;;
56997;SDS011;42890;44.244;22.530;2023-05-10T04:59:25;15.05;;;13.75;;
56997;SDS011;42890;44.244;22.530;2023-05-10T05:01:52;14.45;;;13.15;;
56997;SDS011;42890;44.244;22.530;2023-05-10T05:04:18;14.50;;;13.27;;
56997;SDS011;42890;44.244;22.530;2023-05-10T05:06:44;14.40;;;13.15;;
56997;SDS011;42890;44.244;22.530;2023-05-10T05:09:10;13.35;;;11.48;;
56997;SDS011;42890;44.244;22.530;2023-05-10T05:11:36;13.23;;;12.02;;
56997;SDS011;42890;44.244;22.530;2023-05-10T05:14:03;14.15;;;12.35;;
56997;SDS011;42890;44.244;22.530;2023-05-10T05:16:30;13.70;;;12.38;;
56997;SDS011;42890;44.244;22.530;2023-05-10T05:18:57;14.68;;;12.38;;
56997;SDS011;42890;44.244;22.530;2023-05-10T05:21:23;14.73;;;13.18;;
56997;SDS011;42890;44.244;22.530;2023-05-10T05:23:51;12.82;;;11.73;;
56997;SDS011;42890;44.244;22.530;2023-05-10T05:26:17;12.82;;;11.68;;
56997;SDS011;42890;44.244;22.530;2023-05-10T05:28:43;13.10;;;11.73;;
56997;SDS011;42890;44.244;22.530;2023-05-10T05:31:10;13.23;;;11.85;;
56997;SDS011;42890;44.244;22.530;2023-05-10T05:33:36;15.13;;;11.90;;
56997;SDS011;42890;44.244;22.530;2023-05-10T05:36:05;17.70;;;11.23;;
56997;SDS011;42890;44.244;22.530;2023-05-10T05:38:32;13.23;;;11.90;;
56997;SDS011;42890;44.244;22.530;2023-05-10T05:40:58;13.13;;;11.40;;
56997;SDS011;42890;44.244;22.530;2023-05-10T05:43:24;12.63;;;11.43;;
56997;SDS011;42890;44.244;22.530;2023-05-10T05:45:51;12.18;;;10.93;;
56997;SDS011;42890;44.244;22.530;2023-05-10T05:48:18;15.45;;;10.75;;
56997;SDS011;42890;44.244;22.530;2023-05-10T05:50:45;10.93;;;10.05;;
56997;SDS011;42890;44.244;22.530;2023-05-10T05:53:12;11.70;;;10.50;;
56997;SDS011;42890;44.244;22.530;2023-05-10T05:55:38;11.95;;;10.63;;
56997;SDS011;42890;44.244;22.530;2023-05-10T05:58:04;15.50;;;10.48;;
56997;SDS011;42890;44.244;22.530;2023-05-10T06:00:30;13.65;;;10.48;;
56997;SDS011;42890;44.244;22.530;2023-05-10T06:02:57;12.88;;;9.77;;
56997;SDS011;42890;44.244;22.530;2023-05-10T06:05:23;11.95;;;10.50;;
56997;SDS011;42890;44.244;22.530;2023-05-10T06:07:49;11.20;;;10.20;;
56997;SDS011;42890;44.244;22.530;2023-05-10T06:10:15;11.13;;;10.02;;
56997;SDS011;42890;44.244;22.530;2023-05-10T06:12:41;22.05;;;11.63;;
56997;SDS011;42890;44.244;22.530;2023-05-10T06:15:07;22.13;;;18.70;;
56997;SDS011;42890;44.244;22.530;2023-05-10T06:17:34;18.95;;;16.00;;
56997;SDS011;42890;44.244;22.530;2023-05-10T06:20:00;14.75;;;13.23;;
56997;SDS011;42890;44.244;22.530;2023-05-10T06:22:26;12.60;;;11.25;;
56997;SDS011;42890;44.244;22.530;2023-05-10T06:24:52;10.82;;;9.82;;
56997;SDS011;42890;44.244;22.530;2023-05-10T06:27:18;11.10;;;10.15;;
56997;SDS011;42890;44.244;22.530;2023-05-10T06:29:44;10.55;;;9.50;;
56997;SDS011;42890;44.244;22.530;2023-05-10T06:32:10;10.98;;;9.98;;
56997;SDS011;42890;44.244;22.530;2023-05-10T06:34:37;13.43;;;9.35;;
56997;SDS011;42890;44.244;22.530;2023-05-10T06:37:03;13.05;;;11.88;;
56997;SDS011;42890;44.244;22.530;2023-05-10T06:39:29;11.13;;;10.05;;
56997;SDS011;42890;44.244;22.530;2023-05-10T06:41:55;10.32;;;9.40;;
56997;SDS011;42890;44.244;22.530;2023-05-10T06:44:21;9.55;;;8.63;;
56997;SDS011;42890;44.244;22.530;2023-05-10T06:46:48;10.10;;;7.95;;
56997;SDS011;42890;44.244;22.530;2023-05-10T06:49:14;20.33;;;10.80;;
56997;SDS011;42890;44.244;22.530;2023-05-10T06:51:40;13.48;;;9.02;;
56997;SDS011;42890;44.244;22.530;2023-05-10T06:54:07;8.90;;;8.05;;
56997;SDS011;42890;44.244;22.530;2023-05-10T06:56:33;11.57;;;9.07;;
56997;SDS011;42890;44.244;22.530;2023-05-10T06:58:59;10.20;;;8.35;;
56997;SDS011;42890;44.244;22.530;2023-05-10T07:01:25;8.82;;;7.95;;
56997;SDS011;42890;44.244;22.530;2023-05-10T07:03:51;15.88;;;10.25;;
56997;SDS011;42890;44.244;22.530;2023-05-10T07:06:17;11.85;;;10.45;;
56997;SDS011;42890;44.244;22.530;2023-05-10T07:08:43;17.75;;;11.68;;
56997;SDS011;42890;44.244;22.530;2023-05-10T07:11:10;20.40;;;11.27;;
56997;SDS011;42890;44.244;22.530;2023-05-10T07:13:36;10.93;;;8.75;;
56997;SDS011;42890;44.244;22.530;2023-05-10T07:16:04;16.88;;;12.32;;
56997;SDS011;42890;44.244;22.530;2023-05-10T07:18:31;11.98;;;9.98;;
56997;SDS011;42890;44.244;22.530;2023-05-10T07:20:57;7.88;;;7.10;;
56997;SDS011;42890;44.244;22.530;2023-05-10T07:23:23;9.45;;;8.13;;
56997;SDS011;42890;44.244;22.530;2023-05-10T07:25:50;10.45;;;8.70;;
56997;SDS011;42890;44.244;22.530;2023-05-10T07:28:17;7.60;;;6.50;;
56997;SDS011;42890;44.244;22.530;2023-05-10T07:30:43;12.98;;;7.68;;
56997;SDS011;42890;44.244;22.530;2023-05-10T07:33:10;13.43;;;7.47;;
56997;SDS011;42890;44.244;22.530;2023-05-10T07:35:36;8.00;;;6.53;;
56997;SDS011;42890;44.244;22.530;2023-05-10T07:38:03;7.53;;;6.78;;
56997;SDS011;42890;44.244;22.530;2023-05-10T07:40:29;7.20;;;6.50;;
56997;SDS011;42890;44.244;22.530;2023-05-10T07:42:55;12.57;;;6.75;;
56997;SDS011;42890;44.244;22.530;2023-05-10T07:45:21;11.10;;;8.07;;
56997;SDS011;42890;44.244;22.530;2023-05-10T07:47:48;10.80;;;7.30;;
56997;SDS011;42890;44.244;22.530;2023-05-10T07:50:14;9.38;;;6.53;;
56997;SDS011;42890;44.244;22.530;2023-05-10T07:52:41;8.02;;;6.47;;
56997;SDS011;42890;44.244;22.530;2023-05-10T07:55:07;14.95;;;8.05;;
56997;SDS011;42890;44.244;22.530;2023-05-10T07:57:34;13.02;;;7.40;;
56997;SDS011;42890;44.244;22.530;2023-05-10T08:00:00;16.35;;;7.70;;
56997;SDS011;42890;44.244;22.530;2023-05-10T08:02:26;12.70;;;10.43;;
56997;SDS011;42890;44.244;22.530;2023-05-10T08:04:52;11.55;;;9.60;;
56997;SDS011;42890;44.244;22.530;2023-05-10T08:07:18;12.10;;;8.00;;
56997;SDS011;42890;44.244;22.530;2023-05-10T08:09:45;12.13;;;7.88;;
56997;SDS011;42890;44.244;22.530;2023-05-10T08:12:11;10.23;;;6.93;;
56997;SDS011;42890;44.244;22.530;2023-05-10T08:14:37;16.35;;;11.60;;
56997;SDS011;42890;44.244;22.530;2023-05-10T08:17:03;17.35;;;9.80;;
56997;SDS011;42890;44.244;22.530;2023-05-10T08:19:29;10.82;;;7.90;;
56997;SDS011;42890;44.244;22.530;2023-05-10T08:21:55;10.77;;;8.80;;
56997;SDS011;42890;44.244;22.530;2023-05-10T08:24:22;11.30;;;7.15;;
56997;SDS011;42890;44.244;22.530;2023-05-10T08:26:48;12.85;;;7.78;;
56997;SDS011;42890;44.244;22.530;2023-05-10T08:29:14;15.23;;;9.32;;
56997;SDS011;42890;44.244;22.530;2023-05-10T08:31:41;9.65;;;8.32;;
56997;SDS011;42890;44.244;22.530;2023-05-10T08:34:07;11.07;;;6.88;;
56997;SDS011;42890;44.244;22.530;2023-05-10T08:36:33;11.65;;;8.48;;
56997;SDS011;42890;44.244;22.530;2023-05-10T08:38:59;6.72;;;5.28;;
56997;SDS011;42890;44.244;22.530;2023-05-10T08:41:25;11.98;;;6.20;;
56997;SDS011;42890;44.244;22.530;2023-05-10T08:43:54;13.60;;;8.63;;
56997;SDS011;42890;44.244;22.530;2023-05-10T08:46:21;15.82;;;10.63;;
56997;SDS011;42890;44.244;22.530;2023-05-10T08:48:47;12.15;;;10.80;;
56997;SDS011;42890;44.244;22.530;2023-05-10T08:51:14;13.25;;;8.35;;
56997;SDS011;42890;44.244;22.530;2023-05-10T08:53:41;19.20;;;13.10;;
56997;SDS011;42890;44.244;22.530;2023-05-10T08:56:07;18.38;;;14.27;;
56997;SDS011;42890;44.244;22.530;2023-05-10T08:58:34;18.10;;;13.30;;
56997;SDS011;42890;44.244;22.530;2023-05-10T09:01:00;16.25;;;12.80;;
56997;SDS011;42890;44.244;22.530;2023-05-10T09:03:26;11.40;;;7.93;;
56997;SDS011;42890;44.244;22.530;2023-05-10T09:05:53;9.07;;;7.63;;
56997;SDS011;42890;44.244;22.530;2023-05-10T09:08:20;12.25;;;9.65;;
56997;SDS011;42890;44.244;22.530;2023-05-10T09:10:47;15.98;;;14.15;;
56997;SDS011;42890;44.244;22.530;2023-05-10T09:13:14;18.73;;;14.95;;
56997;SDS011;42890;44.244;22.530;2023-05-10T09:15:40;13.98;;;10.95;;
56997;SDS011;42890;44.244;22.530;2023-05-10T09:18:06;9.20;;;7.80;;
56997;SDS011;42890;44.244;22.530;2023-05-10T09:20:33;9.57;;;8.55;;
56997;SDS011;42890;44.244;22.530;2023-05-10T09:22:59;11.93;;;10.20;;
56997;SDS011;42890;44.244;22.530;2023-05-10T09:25:25;12.82;;;10.18;;
56997;SDS011;42890;44.244;22.530;2023-05-10T09:27:52;11.45;;;7.97;;
56997;SDS011;42890;44.244;22.530;2023-05-10T09:32:47;14.00;;;7.72;;
56997;SDS011;42890;44.244;22.530;2023-05-10T09:35:14;22.27;;;11.82;;
56997;SDS011;42890;44.244;22.530;2023-05-10T09:37:42;17.08;;;13.18;;
56997;SDS011;42890;44.244;22.530;2023-05-10T09:40:14;13.75;;;9.60;;
56997;SDS011;42890;44.244;22.530;2023-05-10T09:42:42;12.43;;;9.43;;
56997;SDS011;42890;44.244;22.530;2023-05-10T09:45:08;6.50;;;5.82;;
56997;SDS011;42890;44.244;22.530;2023-05-10T09:47:34;7.65;;;6.10;;
56997;SDS011;42890;44.244;22.530;2023-05-10T09:50:02;9.02;;;5.90;;
56997;SDS011;42890;44.244;22.530;2023-05-10T09:55:14;19.35;;;12.48;;
56997;SDS011;42890;44.244;22.530;2023-05-10T09:57:40;17.60;;;11.02;;
56997;SDS011;42890;44.244;22.530;2023-05-10T10:00:07;16.17;;;11.13;;
56997;SDS011;42890;44.244;22.530;2023-05-10T10:02:35;11.13;;;5.85;;
56997;SDS011;42890;44.244;22.530;2023-05-10T10:05:01;12.40;;;8.63;;
56997;SDS011;42890;44.244;22.530;2023-05-10T10:07:30;17.45;;;10.98;;
56997;SDS011;42890;44.244;22.530;2023-05-10T10:09:57;9.23;;;7.40;;
56997;SDS011;42890;44.244;22.530;2023-05-10T10:12:24;18.85;;;14.65;;
56997;SDS011;42890;44.244;22.530;2023-05-10T10:14:51;12.63;;;10.27;;
56997;SDS011;42890;44.244;22.530;2023-05-10T10:17:18;23.73;;;11.13;;
56997;SDS011;42890;44.244;22.530;2023-05-10T10:19:45;11.90;;;10.68;;
56997;SDS011;42890;44.244;22.530;2023-05-10T10:22:11;12.65;;;9.10;;
56997;SDS011;42890;44.244;22.530;2023-05-10T10:24:38;12.00;;;10.63;;
56997;SDS011;42890;44.244;22.530;2023-05-10T10:27:20;14.00;;;10.73;;
56997;SDS011;42890;44.244;22.530;2023-05-10T10:29:52;10.32;;;6.65;;
56997;SDS011;42890;44.244;22.530;2023-05-10T10:33:06;11.75;;;5.07;;
56997;SDS011;42890;44.244;22.530;2023-05-10T10:35:10;9.55;;;5.25;;
56997;SDS011;42890;44.244;22.530;2023-05-10T10:37:43;7.25;;;5.63;;
56997;SDS011;42890;44.244;22.530;2023-05-10T10:40:42;18.80;;;6.78;;
56997;SDS011;42890;44.244;22.530;2023-05-10T10:43:21;5.50;;;5.00;;
56997;SDS011;42890;44.244;22.530;2023-05-10T10:48:33;19.55;;;10.68;;
56997;SDS011;42890;44.244;22.530;2023-05-10T10:51:00;20.55;;;8.88;;
56997;SDS011;42890;44.244;22.530;2023-05-10T10:53:26;11.65;;;8.40;;
56997;SDS011;42890;44.244;22.530;2023-05-10T10:56:02;11.30;;;6.72;;
56997;SDS011;42890;44.244;22.530;2023-05-10T10:58:31;9.85;;;6.07;;
56997;SDS011;42890;44.244;22.530;2023-05-10T11:01:14;12.48;;;6.80;;
56997;SDS011;42890;44.244;22.530;2023-05-10T11:03:41;13.50;;;8.07;;
56997;SDS011;42890;44.244;22.530;2023-05-10T11:06:07;13.63;;;7.05;;
56997;SDS011;42890;44.244;22.530;2023-05-10T11:08:34;17.73;;;10.45;;
56997;SDS011;42890;44.244;22.530;2023-05-10T11:11:08;26.33;;;16.02;;
56997;SDS011;42890;44.244;22.530;2023-05-10T11:13:45;28.20;;;13.18;;
56997;SDS011;42890;44.244;22.530;2023-05-10T11:16:18;11.63;;;6.55;;
56997;SDS011;42890;44.244;22.530;2023-05-10T11:18:54;25.52;;;14.68;;
56997;SDS011;42890;44.244;22.530;2023-05-10T11:21:22;15.75;;;7.82;;
56997;SDS011;42890;44.244;22.530;2023-05-10T11:23:52;13.98;;;7.88;;
56997;SDS011;42890;44.244;22.530;2023-05-10T11:26:21;13.70;;;10.88;;
56997;SDS011;42890;44.244;22.530;2023-05-10T11:28:50;9.77;;;6.07;;
56997;SDS011;42890;44.244;22.530;2023-05-10T11:31:17;7.15;;;6.03;;
56997;SDS011;42890;44.244;22.530;2023-05-10T11:33:45;8.38;;;4.40;;
56997;SDS011;42890;44.244;22.530;2023-05-10T11:36:11;14.25;;;6.68;;
56997;SDS011;42890;44.244;22.530;2023-05-10T11:38:38;14.02;;;8.93;;
56997;SDS011;42890;44.244;22.530;2023-05-10T11:41:04;14.77;;;8.65;;
56997;SDS011;42890;44.244;22.530;2023-05-10T11:43:30;14.30;;;11.85;;
56997;SDS011;42890;44.244;22.530;2023-05-10T11:45:57;14.75;;;8.73;;
56997;SDS011;42890;44.244;22.530;2023-05-10T11:48:23;8.00;;;5.95;;
56997;SDS011;42890;44.244;22.530;2023-05-10T11:50:50;9.73;;;5.65;;
56997;SDS011;42890;44.244;22.530;2023-05-10T11:53:16;10.10;;;5.80;;
56997;SDS011;42890;44.244;22.530;2023-05-10T11:55:42;16.90;;;8.75;;
56997;SDS011;42890;44.244;22.530;2023-05-10T11:58:09;12.48;;;7.13;;
56997;SDS011;42890;44.244;22.530;2023-05-10T12:00:35;10.20;;;5.28;;
56997;SDS011;42890;44.244;22.530;2023-05-10T12:03:01;12.15;;;6.88;;
56997;SDS011;42890;44.244;22.530;2023-05-10T12:05:27;10.95;;;5.80;;
56997;SDS011;42890;44.244;22.530;2023-05-10T12:08:10;27.67;;;17.10;;
56997;SDS011;42890;44.244;22.530;2023-05-10T12:10:36;11.73;;;7.68;;
56997;SDS011;42890;44.244;22.530;2023-05-10T12:13:02;18.73;;;13.20;;
56997;SDS011;42890;44.244;22.530;2023-05-10T12:15:28;14.52;;;9.05;;
56997;SDS011;42890;44.244;22.530;2023-05-10T12:17:54;17.85;;;8.02;;
56997;SDS011;42890;44.244;22.530;2023-05-10T12:20:23;10.85;;;7.88;;
56997;SDS011;42890;44.244;22.530;2023-05-10T12:25:15;8.93;;;6.25;;
56997;SDS011;42890;44.244;22.530;2023-05-10T12:27:51;8.10;;;5.07;;
56997;SDS011;42890;44.244;22.530;2023-05-10T12:30:21;9.95;;;6.55;;
56997;SDS011;42890;44.244;22.530;2023-05-10T12:32:47;11.85;;;6.25;;
56997;SDS011;42890;44.244;22.530;2023-05-10T12:35:14;10.52;;;6.72;;
56997;SDS011;42890;44.244;22.530;2023-05-10T12:37:41;11.63;;;8.35;;
56997;SDS011;42890;44.244;22.530;2023-05-10T12:40:08;8.27;;;6.50;;
56997;SDS011;42890;44.244;22.530;2023-05-10T12:42:36;10.63;;;5.97;;
56997;SDS011;42890;44.244;22.530;2023-05-10T12:45:02;14.40;;;7.35;;
56997;SDS011;42890;44.244;22.530;2023-05-10T12:47:29;12.02;;;8.18;;
56997;SDS011;42890;44.244;22.530;2023-05-10T12:49:55;11.02;;;8.35;;
56997;SDS011;42890;44.244;22.530;2023-05-10T12:52:21;9.75;;;5.43;;
56997;SDS011;42890;44.244;22.530;2023-05-10T12:54:47;6.38;;;5.05;;
56997;SDS011;42890;44.244;22.530;2023-05-10T12:57:14;11.23;;;7.97;;
56997;SDS011;42890;44.244;22.530;2023-05-10T12:59:40;7.78;;;5.93;;
56997;SDS011;42890;44.244;22.530;2023-05-10T13:02:06;7.82;;;4.20;;
56997;SDS011;42890;44.244;22.530;2023-05-10T13:04:33;8.20;;;4.85;;
56997;SDS011;42890;44.244;22.530;2023-05-10T13:06:59;5.53;;;4.10;;
56997;SDS011;42890;44.244;22.530;2023-05-10T13:09:26;12.43;;;4.95;;
56997;SDS011;42890;44.244;22.530;2023-05-10T13:11:54;8.60;;;5.53;;
56997;SDS011;42890;44.244;22.530;2023-05-10T13:14:20;7.88;;;4.40;;
56997;SDS011;42890;44.244;22.530;2023-05-10T13:16:47;5.25;;;3.88;;
56997;SDS011;42890;44.244;22.530;2023-05-10T13:19:13;6.97;;;3.70;;
56997;SDS011;42890;44.244;22.530;2023-05-10T13:21:39;5.10;;;3.33;;
56997;SDS011;42890;44.244;22.530;2023-05-10T13:24:09;6.65;;;4.03;;
56997;SDS011;42890;44.244;22.530;2023-05-10T13:26:38;7.45;;;4.90;;
56997;SDS011;42890;44.244;22.530;2023-05-10T13:29:05;6.40;;;5.32;;
56997;SDS011;42890;44.244;22.530;2023-05-10T13:31:31;10.43;;;5.50;;
56997;SDS011;42890;44.244;22.530;2023-05-10T13:33:57;8.80;;;5.30;;
56997;SDS011;42890;44.244;22.530;2023-05-10T13:36:23;5.75;;;4.45;;
56997;SDS011;42890;44.244;22.530;2023-05-10T13:38:49;4.07;;;3.70;;
56997;SDS011;42890;44.244;22.530;2023-05-10T13:41:15;6.25;;;4.15;;
56997;SDS011;42890;44.244;22.530;2023-05-10T13:43:42;11.25;;;5.28;;
56997;SDS011;42890;44.244;22.530;2023-05-10T13:46:08;7.60;;;4.20;;
56997;SDS011;42890;44.244;22.530;2023-05-10T13:48:34;7.03;;;3.65;;
56997;SDS011;42890;44.244;22.530;2023-05-10T13:51:03;5.40;;;3.15;;
56997;SDS011;42890;44.244;22.530;2023-05-10T13:53:30;5.68;;;3.30;;
56997;SDS011;42890;44.244;22.530;2023-05-10T13:55:56;6.00;;;4.97;;
56997;SDS011;42890;44.244;22.530;2023-05-10T13:58:22;4.53;;;3.70;;
56997;SDS011;42890;44.244;22.530;2023-05-10T14:00:49;6.85;;;3.70;;
56997;SDS011;42890;44.244;22.530;2023-05-10T14:03:15;7.90;;;4.47;;
56997;SDS011;42890;44.244;22.530;2023-05-10T14:05:42;5.78;;;3.92;;
56997;SDS011;42890;44.244;22.530;2023-05-10T14:08:09;9.15;;;5.30;;
56997;SDS011;42890;44.244;22.530;2023-05-10T14:10:38;8.13;;;5.13;;
56997;SDS011;42890;44.244;22.530;2023-05-10T14:13:04;8.55;;;5.57;;
56997;SDS011;42890;44.244;22.530;2023-05-10T14:15:31;9.30;;;4.90;;
56997;SDS011;42890;44.244;22.530;2023-05-10T14:17:57;4.70;;;3.70;;
56997;SDS011;42890;44.244;22.530;2023-05-10T14:20:23;3.95;;;3.40;;
56997;SDS011;42890;44.244;22.530;2023-05-10T14:22:50;9.23;;;3.95;;
56997;SDS011;42890;44.244;22.530;2023-05-10T14:25:16;6.70;;;4.18;;
56997;SDS011;42890;44.244;22.530;2023-05-10T14:27:42;8.45;;;4.07;;
56997;SDS011;42890;44.244;22.530;2023-05-10T14:30:08;8.80;;;3.78;;
56997;SDS011;42890;44.244;22.530;2023-05-10T14:32:35;4.18;;;3.13;;
56997;SDS011;42890;44.244;22.530;2023-05-10T14:35:02;4.30;;;3.05;;
56997;SDS011;42890;44.244;22.530;2023-05-10T14:37:28;6.15;;;3.05;;
56997;SDS011;42890;44.244;22.530;2023-05-10T14:39:54;8.75;;;4.63;;
56997;SDS011;42890;44.244;22.530;2023-05-10T14:42:20;7.95;;;3.83;;
56997;SDS011;42890;44.244;22.530;2023-05-10T14:44:46;5.88;;;3.60;;